createdAt,value
2018-09-03T04:01:48.499Z,19.00
2018-09-03T04:11:51.108Z,24.27
2018-09-03T04:21:53.744Z,21.57
2018-09-03T04:31:56.288Z,18.70
2018-09-03T04:41:58.855Z,17.87
2018-09-03T04:52:01.422Z,22.80
2018-09-03T05:02:04.060Z,21.53
2018-09-03T05:12:07.010Z,17.67
2018-09-03T05:22:09.649Z,19.00
2018-09-03T05:32:12.280Z,20.97
2018-09-03T05:42:14.770Z,19.00
2018-09-03T05:52:17.613Z,20.20
2018-09-03T06:02:21.217Z,21.40
2018-09-03T06:12:30.788Z,18.10
2018-09-03T06:22:35.706Z,17.87
2018-09-03T06:32:38.448Z,19.50
2018-09-03T06:42:41.077Z,16.33
2018-09-03T06:52:44.294Z,17.83
2018-09-03T07:02:47.056Z,20.60
2018-09-03T07:12:54.144Z,22.40
2018-09-03T07:22:57.129Z,21.43
2018-09-03T07:32:59.759Z,20.57
2018-09-03T07:43:02.630Z,20.80
2018-09-03T07:53:05.320Z,20.93
2018-09-03T08:03:07.953Z,20.60
2018-09-03T08:13:15.009Z,23.20
2018-09-03T08:23:18.655Z,20.10
2018-09-03T08:33:21.275Z,21.50
2018-09-03T08:43:23.806Z,18.67
2018-09-03T08:53:32.716Z,24.37
2018-09-03T09:03:41.166Z,22.37
2018-09-03T09:24:19.845Z,24.43
2018-09-03T09:34:23.755Z,25.13
2018-09-03T09:44:26.510Z,21.60
2018-09-03T09:54:34.102Z,23.13
2018-09-03T10:04:37.709Z,23.40
2018-09-03T10:14:40.522Z,29.97
2018-09-03T10:24:43.332Z,22.60
2018-09-03T10:34:45.957Z,23.20
2018-09-03T10:44:48.559Z,22.93
2018-09-03T10:55:10.943Z,22.03
2018-09-03T11:05:13.659Z,17.87
2018-09-03T11:15:29.815Z,15.30
2018-09-03T11:25:34.523Z,15.10
2018-09-03T11:35:55.033Z,13.43
2018-09-03T11:45:57.665Z,11.03
2018-09-03T11:56:00.207Z,10.20
2018-09-03T12:06:05.665Z,11.07
2018-09-03T12:16:10.477Z,10.63
2018-09-03T12:26:13.752Z,10.97
2018-09-03T12:36:17.444Z,8.50
2018-09-03T12:46:20.017Z,9.50
2018-09-03T12:56:26.076Z,8.03
2018-09-03T13:06:47.846Z,8.20
2018-09-03T13:16:52.511Z,8.43
2018-09-03T13:26:59.975Z,8.70
2018-09-03T13:37:06.815Z,8.10
2018-09-03T13:47:09.731Z,8.20
2018-09-03T13:57:12.448Z,8.30
2018-09-03T14:07:19.831Z,10.80
2018-09-03T14:17:22.621Z,8.83
2018-09-03T14:27:25.614Z,11.93
2018-09-03T14:37:35.243Z,11.60
2018-09-03T14:47:37.907Z,10.40
2018-09-03T14:57:40.718Z,10.57
2018-09-03T15:07:48.988Z,10.60
2018-09-03T15:17:51.560Z,9.97
2018-09-03T15:28:02.299Z,9.60
2018-09-03T15:38:05.006Z,10.73
2018-09-03T15:48:07.683Z,9.77
2018-09-03T15:58:10.227Z,9.53
2018-09-03T16:08:12.864Z,11.00
2018-09-03T16:18:16.574Z,12.53
2018-09-03T16:28:20.047Z,11.13
2018-09-03T16:38:23.888Z,9.87
2018-09-03T16:48:26.704Z,11.40
2018-09-03T16:58:29.296Z,11.50
2018-09-03T17:08:34.243Z,11.40
2018-09-03T17:18:36.899Z,10.77
2018-09-03T17:28:39.719Z,9.60
2018-09-03T17:38:42.451Z,9.40
2018-09-03T17:59:12.513Z,9.73
2018-09-03T18:09:16.175Z,11.23
2018-09-03T18:19:25.623Z,13.07
2018-09-03T18:29:29.339Z,12.73
2018-09-03T18:39:31.921Z,12.50
2018-09-03T18:49:34.987Z,12.30
2018-09-03T18:59:37.729Z,13.07
2018-09-03T19:09:41.767Z,14.87
2018-09-03T19:19:44.564Z,15.87
2018-09-03T19:29:47.183Z,16.90
2018-09-03T19:39:51.928Z,16.23
2018-09-03T19:49:56.425Z,16.70
2018-09-03T20:00:02.217Z,17.17
2018-09-03T20:10:05.402Z,19.43
2018-09-03T20:20:08.160Z,17.63
2018-09-03T20:30:12.143Z,18.87
2018-09-03T20:40:18.921Z,20.17
2018-09-03T20:50:23.656Z,19.67
2018-09-03T21:00:26.310Z,21.83
2018-09-03T21:10:30.000Z,18.60
2018-09-03T21:20:34.712Z,18.13
2018-09-03T21:30:38.373Z,18.90
2018-09-03T21:40:41.927Z,17.50
2018-09-03T21:50:58.662Z,18.67
2018-09-03T22:01:07.355Z,17.80
2018-09-03T22:11:09.905Z,17.40
2018-09-03T22:21:12.727Z,16.63
2018-09-03T22:31:15.438Z,18.70
2018-09-03T22:41:20.118Z,20.30
2018-09-03T22:51:24.725Z,26.93
2018-09-03T23:01:28.366Z,29.00
2018-09-03T23:11:30.906Z,21.20
2018-09-03T23:21:37.003Z,23.67
2018-09-03T23:31:39.675Z,28.90
2018-09-03T23:41:43.376Z,31.40
2018-09-03T23:51:45.956Z,35.70
